createdAt,value
2023-05-07T00:00:25.532Z,100.00
2023-05-07T00:03:22.601Z,100.00
2023-05-07T00:06:09.077Z,100.00
2023-05-07T00:08:57.081Z,100.00
2023-05-07T00:11:42.895Z,100.00
2023-05-07T00:14:29.471Z,100.00
2023-05-07T00:17:15.335Z,100.00
2023-05-07T00:20:01.669Z,100.00
2023-05-07T00:22:48.228Z,100.00
2023-05-07T00:25:34.345Z,100.00
2023-05-07T00:28:20.564Z,100.00
2023-05-07T00:31:07.051Z,100.00
2023-05-07T00:33:53.177Z,100.00
2023-05-07T00:36:39.092Z,100.00
2023-05-07T00:39:25.105Z,100.00
2023-05-07T00:42:11.409Z,100.00
2023-05-07T00:44:57.707Z,100.00
2023-05-07T00:47:44.342Z,100.00
2023-05-07T00:50:30.602Z,100.00
2023-05-07T00:53:17.026Z,100.00
2023-05-07T00:56:03.494Z,100.00
2023-05-07T00:58:50.286Z,100.00
2023-05-07T01:01:36.435Z,100.00
2023-05-07T01:04:22.588Z,100.00
2023-05-07T01:07:09.261Z,100.00
2023-05-07T01:09:55.856Z,100.00
2023-05-07T01:12:42.386Z,100.00
2023-05-07T01:15:28.796Z,100.00
2023-05-07T01:18:16.381Z,100.00
2023-05-07T01:21:03.154Z,100.00
2023-05-07T01:23:49.678Z,100.00
2023-05-07T01:26:36.865Z,100.00
2023-05-07T01:29:23.058Z,100.00
2023-05-07T01:32:09.812Z,100.00
2023-05-07T01:34:56.812Z,100.00
2023-05-07T01:37:43.454Z,100.00
2023-05-07T01:40:29.507Z,100.00
2023-05-07T01:43:16.525Z,100.00
2023-05-07T01:46:03.958Z,100.00
2023-05-07T01:48:51.115Z,100.00
2023-05-07T01:51:37.542Z,100.00
2023-05-07T01:54:30.236Z,100.00
2023-05-07T01:57:17.190Z,100.00
2023-05-07T02:00:06.123Z,100.00
2023-05-07T02:03:01.627Z,100.00
2023-05-07T02:06:10.521Z,100.00
2023-05-07T02:08:58.595Z,100.00
2023-05-07T02:11:45.364Z,100.00
2023-05-07T02:14:31.747Z,100.00
2023-05-07T02:17:17.539Z,100.00
2023-05-07T02:20:05.038Z,100.00
2023-05-07T02:22:51.166Z,100.00
2023-05-07T02:25:37.228Z,100.00
2023-05-07T02:28:23.667Z,100.00
2023-05-07T02:31:21.252Z,100.00
2023-05-07T02:34:07.687Z,100.00
2023-05-07T02:36:53.911Z,100.00
2023-05-07T02:39:43.239Z,100.00
2023-05-07T02:42:29.476Z,100.00
2023-05-07T02:45:15.993Z,100.00
2023-05-07T02:48:03.119Z,100.00
2023-05-07T02:50:49.599Z,100.00
2023-05-07T02:53:35.802Z,100.00
2023-05-07T02:56:22.240Z,100.00
2023-05-07T02:59:08.754Z,100.00
2023-05-07T03:01:59.611Z,100.00
2023-05-07T03:04:45.872Z,100.00
2023-05-07T03:07:32.300Z,100.00
2023-05-07T03:10:19.564Z,100.00
2023-05-07T03:13:06.383Z,100.00
2023-05-07T03:15:52.149Z,100.00
2023-05-07T03:18:38.796Z,100.00
2023-05-07T03:21:25.002Z,100.00
2023-05-07T03:24:11.155Z,100.00
2023-05-07T03:26:56.867Z,100.00
2023-05-07T03:29:43.674Z,100.00
2023-05-07T03:32:29.478Z,100.00
2023-05-07T03:35:15.788Z,100.00
2023-05-07T03:38:02.566Z,100.00
2023-05-07T03:40:53.055Z,100.00
2023-05-07T03:43:39.207Z,100.00
2023-05-07T03:46:29.538Z,100.00
2023-05-07T03:49:15.882Z,100.00
2023-05-07T03:52:02.210Z,100.00
2023-05-07T03:54:48.502Z,100.00
2023-05-07T03:57:36.314Z,100.00
2023-05-07T04:00:23.291Z,100.00
2023-05-07T04:03:09.704Z,100.00
2023-05-07T04:05:56.058Z,100.00
2023-05-07T04:08:42.718Z,100.00
2023-05-07T04:11:29.005Z,100.00
2023-05-07T04:14:15.610Z,100.00
2023-05-07T04:17:01.959Z,100.00
2023-05-07T04:19:48.808Z,100.00
2023-05-07T04:22:36.309Z,100.00
2023-05-07T04:25:27.847Z,100.00
2023-05-07T04:28:19.523Z,100.00
2023-05-07T04:31:06.600Z,100.00
2023-05-07T04:33:54.896Z,100.00
2023-05-07T04:36:43.514Z,100.00
2023-05-07T04:39:31.831Z,100.00
2023-05-07T04:42:18.897Z,100.00
2023-05-07T04:45:06.310Z,100.00
2023-05-07T04:47:54.960Z,100.00
2023-05-07T04:50:40.895Z,100.00
2023-05-07T04:53:27.845Z,100.00
2023-05-07T04:56:15.900Z,100.00
2023-05-07T04:59:03.990Z,99.15
2023-05-07T05:01:50.710Z,97.68
2023-05-07T05:04:37.993Z,96.88
2023-05-07T05:07:25.082Z,96.86
2023-05-07T05:10:12.065Z,96.10
2023-05-07T05:13:00.039Z,95.43
2023-05-07T05:15:47.614Z,92.88
2023-05-07T05:18:34.006Z,92.44
2023-05-07T05:21:21.403Z,92.06
2023-05-07T05:24:10.529Z,92.11
2023-05-07T05:26:57.729Z,91.64
2023-05-07T05:29:44.616Z,91.16
2023-05-07T05:32:31.483Z,90.27
2023-05-07T05:35:17.692Z,90.19
2023-05-07T05:38:04.801Z,90.50
2023-05-07T05:40:52.260Z,89.89
2023-05-07T05:43:39.794Z,88.48
2023-05-07T05:46:26.690Z,87.29
2023-05-07T05:49:13.592Z,86.86
2023-05-07T05:52:00.587Z,87.64
2023-05-07T05:54:47.488Z,86.36
2023-05-07T05:57:34.387Z,86.02
2023-05-07T06:00:23.786Z,85.88
2023-05-07T06:03:18.528Z,85.74
2023-05-07T06:06:06.928Z,85.17
2023-05-07T06:08:53.733Z,84.12
2023-05-07T06:11:45.803Z,83.57
2023-05-07T06:14:33.356Z,83.52
2023-05-07T06:17:22.107Z,81.50
2023-05-07T06:20:11.543Z,81.42
2023-05-07T06:23:00.373Z,81.72
2023-05-07T06:25:54.086Z,80.69
2023-05-07T06:28:44.315Z,79.57
2023-05-07T06:31:33.116Z,78.63
2023-05-07T06:34:26.022Z,79.27
2023-05-07T06:37:11.874Z,79.21
2023-05-07T06:40:20.724Z,79.36
2023-05-07T06:43:08.395Z,78.16
2023-05-07T06:46:02.503Z,78.59
2023-05-07T06:48:49.109Z,78.29
2023-05-07T06:51:36.022Z,78.31
2023-05-07T06:54:24.415Z,77.01
2023-05-07T06:57:11.580Z,76.90
2023-05-07T06:59:57.833Z,76.97
2023-05-07T07:02:44.699Z,76.96
2023-05-07T07:05:32.893Z,77.05
2023-05-07T07:08:23.468Z,75.88
2023-05-07T07:11:11.388Z,75.37
2023-05-07T07:13:57.730Z,74.56
2023-05-07T07:16:43.727Z,74.62
2023-05-07T07:19:30.037Z,73.67
2023-05-07T07:22:18.133Z,73.65
2023-05-07T07:25:05.545Z,72.36
2023-05-07T07:27:51.701Z,73.25
2023-05-07T07:30:38.940Z,74.17
2023-05-07T07:33:24.939Z,73.81
2023-05-07T07:36:11.716Z,73.92
2023-05-07T07:38:58.629Z,73.62
2023-05-07T07:41:45.341Z,74.30
2023-05-07T07:44:32.262Z,74.58
2023-05-07T07:47:23.996Z,74.99
2023-05-07T07:50:14.827Z,75.27
2023-05-07T07:53:06.012Z,75.23
2023-05-07T07:55:53.128Z,75.58
2023-05-07T07:58:42.859Z,76.36
2023-05-07T08:01:31.824Z,76.76
2023-05-07T08:04:19.299Z,76.60
2023-05-07T08:07:05.769Z,76.79
2023-05-07T08:09:56.631Z,77.22
2023-05-07T08:12:44.071Z,77.57
2023-05-07T08:15:30.464Z,77.61
2023-05-07T08:18:16.542Z,78.05
2023-05-07T08:21:04.652Z,78.39
2023-05-07T08:23:51.435Z,78.61
2023-05-07T08:26:40.580Z,78.10
2023-05-07T08:29:28.014Z,77.96
2023-05-07T08:32:14.528Z,78.15
2023-05-07T08:35:01.264Z,78.67
2023-05-07T08:37:47.927Z,78.67
2023-05-07T08:40:39.122Z,78.56
2023-05-07T08:43:30.173Z,78.59
2023-05-07T08:46:24.129Z,78.79
2023-05-07T08:49:14.947Z,78.97
2023-05-07T08:52:01.597Z,78.96
2023-05-07T08:54:48.873Z,78.99
2023-05-07T08:57:36.490Z,79.24
2023-05-07T09:00:23.884Z,79.04
2023-05-07T09:03:15.569Z,78.88
2023-05-07T09:06:06.388Z,79.02
2023-05-07T09:08:54.578Z,79.02
2023-05-07T09:11:43.654Z,77.93
2023-05-07T09:14:34.511Z,77.47
2023-05-07T09:17:22.459Z,77.31
2023-05-07T09:20:10.792Z,76.97
2023-05-07T09:23:00.299Z,77.06
2023-05-07T09:25:47.417Z,77.38
2023-05-07T09:28:44.386Z,77.41
2023-05-07T09:31:32.476Z,77.52
2023-05-07T09:34:19.364Z,77.65
2023-05-07T09:37:07.488Z,77.76
2023-05-07T09:39:54.237Z,77.96
2023-05-07T09:42:42.889Z,78.21
2023-05-07T09:45:30.029Z,78.10
2023-05-07T09:48:18.186Z,78.25
2023-05-07T09:51:10.660Z,78.45
2023-05-07T09:54:02.302Z,78.59
2023-05-07T09:56:50.372Z,78.60
2023-05-07T09:59:39.553Z,78.34
2023-05-07T10:02:31.599Z,78.67
2023-05-07T10:05:18.069Z,78.17
2023-05-07T10:08:05.056Z,77.41
2023-05-07T10:10:54.055Z,76.75
2023-05-07T10:13:44.743Z,76.75
2023-05-07T10:16:33.852Z,76.92
2023-05-07T10:19:20.623Z,76.52
2023-05-07T10:22:11.496Z,76.52
2023-05-07T10:25:03.995Z,75.53
2023-05-07T10:27:51.923Z,76.27
2023-05-07T10:31:13.364Z,75.58
2023-05-07T10:34:09.370Z,75.95
2023-05-07T10:36:57.547Z,76.06
2023-05-07T10:39:44.485Z,75.29
2023-05-07T10:42:31.616Z,74.84
2023-05-07T10:45:17.954Z,74.17
2023-05-07T10:51:21.818Z,73.29
2023-05-07T10:54:12.627Z,72.84
2023-05-07T10:57:29.677Z,70.84
2023-05-07T11:03:23.596Z,68.65
2023-05-07T11:06:17.055Z,69.20
2023-05-07T11:09:14.371Z,68.66
2023-05-07T11:12:13.614Z,69.17
2023-05-07T11:15:12.006Z,69.29
2023-05-07T11:18:00.833Z,69.45
2023-05-07T11:20:53.540Z,69.59
2023-05-07T11:24:04.143Z,70.12
2023-05-07T11:27:10.583Z,69.92
2023-05-07T11:29:57.418Z,70.19
2023-05-07T11:32:43.297Z,70.12
2023-05-07T11:35:30.223Z,69.85
2023-05-07T11:38:16.851Z,69.62
2023-05-07T11:41:06.376Z,69.87
2023-05-07T11:43:57.773Z,70.12
2023-05-07T11:46:45.374Z,70.44
2023-05-07T11:49:31.498Z,70.33
2023-05-07T11:52:19.809Z,70.21
2023-05-07T11:55:06.034Z,69.55
2023-05-07T11:57:52.170Z,69.26
2023-05-07T12:00:38.399Z,69.17
2023-05-07T12:03:25.082Z,69.16
2023-05-07T12:06:13.043Z,69.24
2023-05-07T12:09:02.541Z,69.12
2023-05-07T12:11:50.630Z,68.61
2023-05-07T12:14:46.102Z,68.58
2023-05-07T12:17:34.537Z,68.17
2023-05-07T12:20:21.208Z,68.18
2023-05-07T12:23:08.468Z,67.71
2023-05-07T12:25:55.395Z,68.02
2023-05-07T12:28:42.396Z,65.78
2023-05-07T12:31:30.041Z,65.64
2023-05-07T12:34:17.140Z,64.68
2023-05-07T12:37:05.182Z,64.69
2023-05-07T12:40:09.227Z,64.60
2023-05-07T12:42:57.326Z,63.77
2023-05-07T12:45:46.109Z,63.46
2023-05-07T12:48:33.621Z,63.55
2023-05-07T12:51:20.112Z,62.40
2023-05-07T12:54:07.189Z,61.52
2023-05-07T12:57:10.740Z,61.72
2023-05-07T12:59:59.378Z,61.50
2023-05-07T13:02:47.315Z,61.94
2023-05-07T13:05:34.770Z,62.17
2023-05-07T13:08:35.544Z,61.65
2023-05-07T13:11:22.768Z,62.04
2023-05-07T13:14:09.584Z,62.35
2023-05-07T13:16:57.087Z,62.04
2023-05-07T13:19:43.935Z,61.58
2023-05-07T13:22:30.744Z,60.75
2023-05-07T13:25:17.608Z,60.79
2023-05-07T13:28:10.584Z,61.29
2023-05-07T13:30:58.436Z,61.24
2023-05-07T13:33:45.045Z,61.21
2023-05-07T13:36:34.341Z,61.05
2023-05-07T13:39:21.253Z,61.17
2023-05-07T13:42:08.143Z,61.05
2023-05-07T13:44:55.014Z,60.93
2023-05-07T13:47:44.743Z,61.08
2023-05-07T13:50:31.312Z,60.86
2023-05-07T13:53:19.572Z,61.14
2023-05-07T13:56:07.139Z,61.17
2023-05-07T13:59:00.104Z,61.36
2023-05-07T14:01:48.494Z,61.53
2023-05-07T14:04:34.915Z,61.45
2023-05-07T14:07:21.909Z,61.81
2023-05-07T14:10:08.390Z,62.20
2023-05-07T14:12:55.670Z,61.81
2023-05-07T14:15:43.477Z,61.70
2023-05-07T14:18:30.855Z,61.04
2023-05-07T14:21:17.895Z,60.34
2023-05-07T14:24:05.556Z,59.94
2023-05-07T14:26:51.864Z,59.92
2023-05-07T14:29:38.122Z,59.50
2023-05-07T14:32:24.529Z,58.94
2023-05-07T14:35:11.495Z,58.96
2023-05-07T14:37:58.396Z,59.44
2023-05-07T14:40:46.476Z,59.60
2023-05-07T14:43:32.808Z,59.45
2023-05-07T14:46:20.852Z,59.67
2023-05-07T14:49:13.620Z,59.95
2023-05-07T14:52:04.340Z,60.01
2023-05-07T14:54:53.332Z,60.36
2023-05-07T14:57:42.607Z,60.44
2023-05-07T15:00:30.438Z,60.71
2023-05-07T15:03:18.398Z,60.49
2023-05-07T15:06:05.752Z,60.25
2023-05-07T15:08:52.067Z,59.68
2023-05-07T15:11:38.104Z,59.13
2023-05-07T15:14:24.625Z,59.27
2023-05-07T15:17:11.109Z,59.32
2023-05-07T15:19:57.499Z,58.96
2023-05-07T15:22:43.816Z,58.82
2023-05-07T15:25:32.248Z,58.21
2023-05-07T15:28:18.949Z,58.64
2023-05-07T15:31:06.951Z,58.89
2023-05-07T15:33:53.377Z,58.51
2023-05-07T15:36:39.817Z,58.06
2023-05-07T15:39:26.419Z,57.29
2023-05-07T15:42:13.253Z,57.61
2023-05-07T15:45:01.425Z,57.47
2023-05-07T15:47:48.758Z,57.65
2023-05-07T15:50:35.500Z,57.54
2023-05-07T15:53:22.910Z,57.57
2023-05-07T15:56:08.954Z,57.38
2023-05-07T15:58:56.245Z,57.38
2023-05-07T16:01:43.944Z,57.77
2023-05-07T16:04:30.440Z,57.33
2023-05-07T16:07:16.485Z,57.08
2023-05-07T16:10:06.450Z,56.87
2023-05-07T16:12:52.405Z,57.11
2023-05-07T16:15:39.733Z,57.00
2023-05-07T16:18:26.080Z,57.45
2023-05-07T16:21:13.151Z,57.42
2023-05-07T16:23:59.175Z,57.46
2023-05-07T16:26:45.746Z,57.17
2023-05-07T16:29:31.840Z,57.42
2023-05-07T16:32:18.687Z,57.26
2023-05-07T16:35:04.956Z,57.60
2023-05-07T16:37:51.223Z,57.63
2023-05-07T16:40:40.602Z,57.89
2023-05-07T16:43:27.421Z,58.18
2023-05-07T16:46:13.408Z,57.86
2023-05-07T16:48:59.978Z,58.17
2023-05-07T16:51:48.800Z,58.03
2023-05-07T16:54:37.060Z,58.15
2023-05-07T16:57:22.838Z,58.25
2023-05-07T17:00:11.721Z,58.46
2023-05-07T17:02:58.030Z,58.69
2023-05-07T17:05:44.354Z,58.81
2023-05-07T17:08:29.996Z,58.86
2023-05-07T17:11:16.583Z,59.19
2023-05-07T17:14:05.359Z,59.51
2023-05-07T17:16:52.139Z,59.50
2023-05-07T17:19:40.061Z,59.62
2023-05-07T17:22:27.154Z,59.54
2023-05-07T17:25:14.943Z,59.49
2023-05-07T17:28:02.018Z,59.79
2023-05-07T17:30:48.983Z,59.95
2023-05-07T17:33:35.241Z,60.09
2023-05-07T17:36:20.887Z,60.45
2023-05-07T17:39:07.205Z,60.36
2023-05-07T17:41:53.409Z,60.06
2023-05-07T17:44:40.108Z,59.57
2023-05-07T17:47:26.437Z,59.65
2023-05-07T17:50:14.115Z,60.05
2023-05-07T17:53:00.793Z,60.29
2023-05-07T17:55:47.959Z,60.64
2023-05-07T17:58:36.556Z,61.08
2023-05-07T18:01:27.958Z,61.21
2023-05-07T18:04:14.270Z,61.23
2023-05-07T18:07:00.538Z,61.53
2023-05-07T18:09:46.373Z,62.17
2023-05-07T18:12:32.895Z,62.15
2023-05-07T18:15:19.530Z,62.49
2023-05-07T18:18:06.065Z,62.99
2023-05-07T18:20:52.432Z,63.41
2023-05-07T18:23:38.651Z,63.81
2023-05-07T18:26:24.613Z,63.63
2023-05-07T18:29:13.688Z,64.20
2023-05-07T18:32:00.013Z,64.52
2023-05-07T18:34:46.763Z,65.19
2023-05-07T18:37:34.090Z,65.56
2023-05-07T18:40:21.224Z,65.47
2023-05-07T18:43:07.341Z,65.63
2023-05-07T18:45:53.907Z,66.19
2023-05-07T18:48:40.746Z,66.24
2023-05-07T18:51:27.330Z,66.45
2023-05-07T18:54:14.300Z,67.06
2023-05-07T18:57:01.249Z,67.16
2023-05-07T18:59:47.632Z,67.47
2023-05-07T19:02:34.194Z,67.68
2023-05-07T19:05:20.796Z,67.52
2023-05-07T19:08:07.204Z,68.24
2023-05-07T19:10:56.602Z,68.83
2023-05-07T19:13:43.595Z,68.90
2023-05-07T19:16:29.715Z,69.89
2023-05-07T19:19:16.221Z,70.19
2023-05-07T19:22:02.014Z,70.58
2023-05-07T19:24:48.628Z,71.24
2023-05-07T19:27:34.692Z,71.59
2023-05-07T19:30:21.622Z,71.57
2023-05-07T19:33:07.781Z,71.96
2023-05-07T19:35:58.353Z,72.00
2023-05-07T19:38:45.295Z,73.07
2023-05-07T19:41:31.360Z,72.72
2023-05-07T19:44:17.800Z,74.06
2023-05-07T19:47:05.812Z,73.82
2023-05-07T19:49:51.757Z,74.54
2023-05-07T19:52:38.609Z,74.58
2023-05-07T19:55:24.821Z,75.39
2023-05-07T19:58:11.384Z,74.58
2023-05-07T20:00:57.933Z,75.41
2023-05-07T20:03:45.097Z,75.64
2023-05-07T20:06:31.523Z,76.20
2023-05-07T20:09:17.868Z,76.31
2023-05-07T20:12:04.178Z,75.61
2023-05-07T20:14:50.746Z,76.33
2023-05-07T20:17:37.542Z,76.67
2023-05-07T20:20:25.651Z,77.50
2023-05-07T20:23:12.303Z,77.01
2023-05-07T20:25:59.086Z,78.06
2023-05-07T20:28:45.220Z,77.04
2023-05-07T20:31:32.493Z,78.21
2023-05-07T20:34:18.449Z,77.25
2023-05-07T20:37:06.034Z,79.01
2023-05-07T20:39:51.905Z,78.61
2023-05-07T20:42:38.449Z,79.51
2023-05-07T20:45:24.322Z,79.14
2023-05-07T20:48:11.031Z,79.63
2023-05-07T20:51:01.285Z,80.05
2023-05-07T20:53:48.111Z,79.65
2023-05-07T20:56:34.524Z,79.44
2023-05-07T20:59:20.769Z,78.99
2023-05-07T21:02:10.065Z,79.25
2023-05-07T21:04:56.493Z,79.59
2023-05-07T21:07:42.093Z,80.09
2023-05-07T21:10:28.776Z,79.81
2023-05-07T21:13:15.144Z,79.83
2023-05-07T21:16:01.297Z,79.54
2023-05-07T21:18:47.328Z,79.64
2023-05-07T21:21:34.182Z,79.80
2023-05-07T21:24:20.094Z,79.68
2023-05-07T21:27:06.712Z,79.72
2023-05-07T21:29:52.884Z,79.81
2023-05-07T21:32:39.335Z,79.45
2023-05-07T21:35:25.660Z,79.65
2023-05-07T21:38:14.786Z,79.65
2023-05-07T21:41:00.953Z,79.71
2023-05-07T21:43:47.616Z,79.80
2023-05-07T21:46:34.233Z,79.59
2023-05-07T21:49:20.731Z,79.65
2023-05-07T21:52:11.733Z,79.57
2023-05-07T21:54:58.124Z,79.64
2023-05-07T21:57:50.783Z,79.51
2023-05-07T22:00:44.545Z,79.62
2023-05-07T22:03:30.580Z,79.62
2023-05-07T22:06:21.851Z,79.39
2023-05-07T22:09:08.097Z,79.32
2023-05-07T22:11:55.218Z,79.36
2023-05-07T22:14:41.503Z,79.51
2023-05-07T22:17:28.190Z,79.46
2023-05-07T22:20:14.529Z,79.66
2023-05-07T22:23:01.116Z,79.65
2023-05-07T22:25:47.314Z,79.49
2023-05-07T22:28:34.562Z,79.46
2023-05-07T22:31:20.877Z,79.55
2023-05-07T22:34:07.143Z,79.46
2023-05-07T22:36:53.485Z,79.47
2023-05-07T22:39:42.029Z,79.34
2023-05-07T22:42:28.215Z,79.43
2023-05-07T22:45:14.340Z,80.25
2023-05-07T22:48:00.763Z,80.02
2023-05-07T22:50:46.945Z,80.66
2023-05-07T22:53:32.810Z,80.74
2023-05-07T22:56:19.179Z,80.39
2023-05-07T22:59:05.136Z,80.54
2023-05-07T23:01:52.074Z,80.35
2023-05-07T23:04:37.967Z,80.75
2023-05-07T23:07:24.605Z,79.99
2023-05-07T23:10:10.786Z,80.51
2023-05-07T23:12:57.150Z,80.82
2023-05-07T23:15:43.717Z,80.74
2023-05-07T23:18:32.596Z,81.09
2023-05-07T23:21:18.408Z,80.59
2023-05-07T23:24:05.076Z,80.85
2023-05-07T23:26:50.962Z,80.86
2023-05-07T23:29:37.454Z,80.39
2023-05-07T23:32:23.781Z,81.27
2023-05-07T23:35:10.279Z,81.73
2023-05-07T23:37:56.430Z,81.33
2023-05-07T23:40:42.870Z,82.02
2023-05-07T23:43:29.112Z,81.83
2023-05-07T23:46:15.740Z,81.91
2023-05-07T23:49:01.573Z,82.11
2023-05-07T23:51:48.310Z,82.44
2023-05-07T23:54:33.977Z,83.90
2023-05-07T23:57:20.700Z,83.97
